sensor_id;sensor_type;location;lat;lon;timestamp;P1;durP1;ratioP1;P2;durP2;ratioP2
50367;SDS011;36281;34.132;-118.018;2023-02-15T00:01:31;14.43;;;4.78;;
50367;SDS011;36281;34.132;-118.018;2023-02-15T00:04:02;15.23;;;4.13;;
50367;SDS011;36281;34.132;-118.018;2023-02-15T00:06:31;11.27;;;4.72;;
50367;SDS011;36281;34.132;-118.018;2023-02-15T00:09:01;12.73;;;4.30;;
50367;SDS011;36281;34.132;-118.018;2023-02-15T00:11:30;17.55;;;4.38;;
50367;SDS011;36281;34.132;-118.018;2023-02-15T00:14:10;13.50;;;4.13;;
50367;SDS011;36281;34.132;-118.018;2023-02-15T00:16:41;12.32;;;3.85;;
50367;SDS011;36281;34.132;-118.018;2023-02-15T00:19:13;16.55;;;4.53;;
50367;SDS011;36281;34.132;-118.018;2023-02-15T00:21:43;11.30;;;3.75;;
50367;SDS011;36281;34.132;-118.018;2023-02-15T00:24:15;17.10;;;4.18;;
50367;SDS011;36281;34.132;-118.018;2023-02-15T00:26:45;10.27;;;4.43;;
50367;SDS011;36281;34.132;-118.018;2023-02-15T00:29:16;8.63;;;3.53;;
50367;SDS011;36281;34.132;-118.018;2023-02-15T00:31:46;11.82;;;4.30;;
50367;SDS011;36281;34.132;-118.018;2023-02-15T00:34:18;15.15;;;4.53;;
50367;SDS011;36281;34.132;-118.018;2023-02-15T00:36:49;13.38;;;4.30;;
50367;SDS011;36281;34.132;-118.018;2023-02-15T00:39:18;10.23;;;3.70;;
50367;SDS011;36281;34.132;-118.018;2023-02-15T00:41:47;13.25;;;4.05;;
50367;SDS011;36281;34.132;-118.018;2023-02-15T00:44:16;10.27;;;4.20;;
50367;SDS011;36281;34.132;-118.018;2023-02-15T00:46:45;14.63;;;3.95;;
50367;SDS011;36281;34.132;-118.018;2023-02-15T00:49:14;12.38;;;3.95;;
50367;SDS011;36281;34.132;-118.018;2023-02-15T00:51:45;9.35;;;3.30;;
50367;SDS011;36281;34.132;-118.018;2023-02-15T00:54:15;4.13;;;2.10;;
50367;SDS011;36281;34.132;-118.018;2023-02-15T00:56:44;4.47;;;2.10;;
50367;SDS011;36281;34.132;-118.018;2023-02-15T00:59:13;4.38;;;2.30;;
50367;SDS011;36281;34.132;-118.018;2023-02-15T01:01:42;4.90;;;2.10;;
50367;SDS011;36281;34.132;-118.018;2023-02-15T01:04:11;4.18;;;1.80;;
50367;SDS011;36281;34.132;-118.018;2023-02-15T01:06:42;2.33;;;1.77;;
50367;SDS011;36281;34.132;-118.018;2023-02-15T01:09:11;2.95;;;2.10;;
50367;SDS011;36281;34.132;-118.018;2023-02-15T01:11:41;3.63;;;1.58;;
50367;SDS011;36281;34.132;-118.018;2023-02-15T01:14:10;4.10;;;1.98;;
50367;SDS011;36281;34.132;-118.018;2023-02-15T01:16:40;3.00;;;1.60;;
50367;SDS011;36281;34.132;-118.018;2023-02-15T01:19:09;3.20;;;1.60;;
50367;SDS011;36281;34.132;-118.018;2023-02-15T01:21:38;2.28;;;1.58;;
50367;SDS011;36281;34.132;-118.018;2023-02-15T01:24:12;6.63;;;1.85;;
50367;SDS011;36281;34.132;-118.018;2023-02-15T01:26:41;2.88;;;1.95;;
50367;SDS011;36281;34.132;-118.018;2023-02-15T01:29:10;3.65;;;1.75;;
50367;SDS011;36281;34.132;-118.018;2023-02-15T01:31:39;4.40;;;1.73;;
50367;SDS011;36281;34.132;-118.018;2023-02-15T01:34:09;3.67;;;1.67;;
50367;SDS011;36281;34.132;-118.018;2023-02-15T01:36:38;2.15;;;1.50;;
50367;SDS011;36281;34.132;-118.018;2023-02-15T01:39:07;1.77;;;1.52;;
50367;SDS011;36281;34.132;-118.018;2023-02-15T01:41:39;4.03;;;1.52;;
50367;SDS011;36281;34.132;-118.018;2023-02-15T01:47:16;1.95;;;1.60;;
50367;SDS011;36281;34.132;-118.018;2023-02-15T01:49:51;2.47;;;1.50;;
50367;SDS011;36281;34.132;-118.018;2023-02-15T01:54:55;2.40;;;1.60;;
50367;SDS011;36281;34.132;-118.018;2023-02-15T01:57:27;4.68;;;1.42;;
50367;SDS011;36281;34.132;-118.018;2023-02-15T01:59:57;3.33;;;1.70;;
50367;SDS011;36281;34.132;-118.018;2023-02-15T02:02:30;2.78;;;1.80;;
50367;SDS011;36281;34.132;-118.018;2023-02-15T02:04:59;3.92;;;1.70;;
50367;SDS011;36281;34.132;-118.018;2023-02-15T02:07:36;3.08;;;1.48;;
50367;SDS011;36281;34.132;-118.018;2023-02-15T02:10:10;1.65;;;1.27;;
50367;SDS011;36281;34.132;-118.018;2023-02-15T02:12:43;4.85;;;1.67;;
50367;SDS011;36281;34.132;-118.018;2023-02-15T02:15:15;2.60;;;1.20;;
50367;SDS011;36281;34.132;-118.018;2023-02-15T02:17:49;7.70;;;1.75;;
50367;SDS011;36281;34.132;-118.018;2023-02-15T02:23:37;2.95;;;1.30;;
50367;SDS011;36281;34.132;-118.018;2023-02-15T02:26:22;4.72;;;2.28;;
50367;SDS011;36281;34.132;-118.018;2023-02-15T02:32:34;2.83;;;1.30;;
50367;SDS011;36281;34.132;-118.018;2023-02-15T02:35:26;2.15;;;1.60;;
50367;SDS011;36281;34.132;-118.018;2023-02-15T02:38:00;2.25;;;1.60;;
50367;SDS011;36281;34.132;-118.018;2023-02-15T02:40:41;2.53;;;1.80;;
50367;SDS011;36281;34.132;-118.018;2023-02-15T02:43:18;1.50;;;1.40;;
50367;SDS011;36281;34.132;-118.018;2023-02-15T02:45:52;2.85;;;1.65;;
50367;SDS011;36281;34.132;-118.018;2023-02-15T02:48:27;1.63;;;1.50;;
50367;SDS011;36281;34.132;-118.018;2023-02-15T02:51:01;2.25;;;1.60;;
50367;SDS011;36281;34.132;-118.018;2023-02-15T02:53:30;2.63;;;1.60;;
50367;SDS011;36281;34.132;-118.018;2023-02-15T02:56:03;1.70;;;1.60;;
50367;SDS011;36281;34.132;-118.018;2023-02-15T02:58:42;3.88;;;1.60;;
50367;SDS011;36281;34.132;-118.018;2023-02-15T03:01:17;3.20;;;1.60;;
50367;SDS011;36281;34.132;-118.018;2023-02-15T03:03:52;2.78;;;1.63;;
50367;SDS011;36281;34.132;-118.018;2023-02-15T03:06:31;2.22;;;1.50;;
50367;SDS011;36281;34.132;-118.018;2023-02-15T03:09:08;3.70;;;1.40;;
50367;SDS011;36281;34.132;-118.018;2023-02-15T03:11:43;1.45;;;1.23;;
50367;SDS011;36281;34.132;-118.018;2023-02-15T03:14:12;3.22;;;1.50;;
50367;SDS011;36281;34.132;-118.018;2023-02-15T03:16:45;4.15;;;1.90;;
50367;SDS011;36281;34.132;-118.018;2023-02-15T03:19:20;2.30;;;2.10;;
50367;SDS011;36281;34.132;-118.018;2023-02-15T03:21:55;2.50;;;1.98;;
50367;SDS011;36281;34.132;-118.018;2023-02-15T03:24:37;3.72;;;1.80;;
50367;SDS011;36281;34.132;-118.018;2023-02-15T03:27:11;3.20;;;1.70;;
50367;SDS011;36281;34.132;-118.018;2023-02-15T03:29:47;2.28;;;1.63;;
50367;SDS011;36281;34.132;-118.018;2023-02-15T03:32:20;2.20;;;1.65;;
50367;SDS011;36281;34.132;-118.018;2023-02-15T03:34:50;3.47;;;2.30;;
50367;SDS011;36281;34.132;-118.018;2023-02-15T03:37:22;10.23;;;2.92;;
50367;SDS011;36281;34.132;-118.018;2023-02-15T03:39:58;3.72;;;2.45;;
50367;SDS011;36281;34.132;-118.018;2023-02-15T03:42:51;2.55;;;2.08;;
50367;SDS011;36281;34.132;-118.018;2023-02-15T03:45:28;3.08;;;1.90;;
50367;SDS011;36281;34.132;-118.018;2023-02-15T03:47:59;2.28;;;1.98;;
50367;SDS011;36281;34.132;-118.018;2023-02-15T03:50:30;2.78;;;1.63;;
50367;SDS011;36281;34.132;-118.018;2023-02-15T03:53:23;2.35;;;1.77;;
50367;SDS011;36281;34.132;-118.018;2023-02-15T03:55:54;4.47;;;1.80;;
50367;SDS011;36281;34.132;-118.018;2023-02-15T03:58:24;2.22;;;1.60;;
50367;SDS011;36281;34.132;-118.018;2023-02-15T04:01:13;2.35;;;1.80;;
50367;SDS011;36281;34.132;-118.018;2023-02-15T04:04:09;2.58;;;1.52;;
50367;SDS011;36281;34.132;-118.018;2023-02-15T04:06:44;3.10;;;1.60;;
50367;SDS011;36281;34.132;-118.018;2023-02-15T04:09:15;1.98;;;1.13;;
50367;SDS011;36281;34.132;-118.018;2023-02-15T04:12:02;3.83;;;1.80;;
50367;SDS011;36281;34.132;-118.018;2023-02-15T04:14:31;3.72;;;1.67;;
50367;SDS011;36281;34.132;-118.018;2023-02-15T04:17:19;8.73;;;1.63;;
50367;SDS011;36281;34.132;-118.018;2023-02-15T04:19:48;1.63;;;1.52;;
50367;SDS011;36281;34.132;-118.018;2023-02-15T04:22:35;4.03;;;1.67;;
50367;SDS011;36281;34.132;-118.018;2023-02-15T04:25:24;4.90;;;1.90;;
50367;SDS011;36281;34.132;-118.018;2023-02-15T04:27:54;1.88;;;1.55;;
50367;SDS011;36281;34.132;-118.018;2023-02-15T04:30:24;2.97;;;1.65;;
50367;SDS011;36281;34.132;-118.018;2023-02-15T04:32:54;2.38;;;1.70;;
50367;SDS011;36281;34.132;-118.018;2023-02-15T04:35:24;4.15;;;1.73;;
50367;SDS011;36281;34.132;-118.018;2023-02-15T04:37:53;2.35;;;1.77;;
50367;SDS011;36281;34.132;-118.018;2023-02-15T04:40:25;5.38;;;1.83;;
50367;SDS011;36281;34.132;-118.018;2023-02-15T04:42:54;5.60;;;1.60;;
50367;SDS011;36281;34.132;-118.018;2023-02-15T04:45:22;7.90;;;2.10;;
50367;SDS011;36281;34.132;-118.018;2023-02-15T04:47:51;2.65;;;2.00;;
50367;SDS011;36281;34.132;-118.018;2023-02-15T04:50:20;5.10;;;1.92;;
50367;SDS011;36281;34.132;-118.018;2023-02-15T04:52:50;4.03;;;1.90;;
50367;SDS011;36281;34.132;-118.018;2023-02-15T04:55:19;5.30;;;1.83;;
50367;SDS011;36281;34.132;-118.018;2023-02-15T04:57:49;3.60;;;1.60;;
50367;SDS011;36281;34.132;-118.018;2023-02-15T05:00:19;7.72;;;2.38;;
50367;SDS011;36281;34.132;-118.018;2023-02-15T05:02:48;5.25;;;1.90;;
50367;SDS011;36281;34.132;-118.018;2023-02-15T05:05:17;7.55;;;2.65;;
50367;SDS011;36281;34.132;-118.018;2023-02-15T05:07:46;6.88;;;2.40;;
50367;SDS011;36281;34.132;-118.018;2023-02-15T05:10:15;5.18;;;2.10;;
50367;SDS011;36281;34.132;-118.018;2023-02-15T05:12:44;4.57;;;2.55;;
50367;SDS011;36281;34.132;-118.018;2023-02-15T05:15:15;6.57;;;2.70;;
50367;SDS011;36281;34.132;-118.018;2023-02-15T05:17:44;6.95;;;2.70;;
50367;SDS011;36281;34.132;-118.018;2023-02-15T05:20:13;5.63;;;2.47;;
50367;SDS011;36281;34.132;-118.018;2023-02-15T05:22:42;4.10;;;2.20;;
50367;SDS011;36281;34.132;-118.018;2023-02-15T05:25:11;7.30;;;2.53;;
50367;SDS011;36281;34.132;-118.018;2023-02-15T05:28:16;3.22;;;2.15;;
50367;SDS011;36281;34.132;-118.018;2023-02-15T05:30:49;5.03;;;2.10;;
50367;SDS011;36281;34.132;-118.018;2023-02-15T05:33:21;6.53;;;2.10;;
50367;SDS011;36281;34.132;-118.018;2023-02-15T05:35:50;5.68;;;1.95;;
50367;SDS011;36281;34.132;-118.018;2023-02-15T05:38:19;4.70;;;1.83;;
50367;SDS011;36281;34.132;-118.018;2023-02-15T05:40:48;5.60;;;1.60;;
50367;SDS011;36281;34.132;-118.018;2023-02-15T05:43:19;7.85;;;2.20;;
50367;SDS011;36281;34.132;-118.018;2023-02-15T05:45:50;5.97;;;1.98;;
50367;SDS011;36281;34.132;-118.018;2023-02-15T05:48:22;7.45;;;2.13;;
50367;SDS011;36281;34.132;-118.018;2023-02-15T05:50:59;8.48;;;1.80;;
50367;SDS011;36281;34.132;-118.018;2023-02-15T05:53:29;7.55;;;1.77;;
50367;SDS011;36281;34.132;-118.018;2023-02-15T05:56:00;8.25;;;1.80;;
50367;SDS011;36281;34.132;-118.018;2023-02-15T05:58:31;7.32;;;1.83;;
50367;SDS011;36281;34.132;-118.018;2023-02-15T06:01:09;4.40;;;1.92;;
50367;SDS011;36281;34.132;-118.018;2023-02-15T06:03:38;4.88;;;1.98;;
50367;SDS011;36281;34.132;-118.018;2023-02-15T06:06:08;8.13;;;2.08;;
50367;SDS011;36281;34.132;-118.018;2023-02-15T06:08:37;6.93;;;2.85;;
50367;SDS011;36281;34.132;-118.018;2023-02-15T06:11:06;3.80;;;1.63;;
50367;SDS011;36281;34.132;-118.018;2023-02-15T06:13:35;6.50;;;2.00;;
50367;SDS011;36281;34.132;-118.018;2023-02-15T06:16:05;5.90;;;1.90;;
50367;SDS011;36281;34.132;-118.018;2023-02-15T06:18:37;9.73;;;1.90;;
50367;SDS011;36281;34.132;-118.018;2023-02-15T06:21:06;8.85;;;2.05;;
50367;SDS011;36281;34.132;-118.018;2023-02-15T06:23:35;6.45;;;2.10;;
50367;SDS011;36281;34.132;-118.018;2023-02-15T06:26:04;7.57;;;1.95;;
50367;SDS011;36281;34.132;-118.018;2023-02-15T06:28:33;4.50;;;1.65;;
50367;SDS011;36281;34.132;-118.018;2023-02-15T06:31:02;4.53;;;1.75;;
50367;SDS011;36281;34.132;-118.018;2023-02-15T06:33:31;8.73;;;1.90;;
50367;SDS011;36281;34.132;-118.018;2023-02-15T06:36:03;7.18;;;2.00;;
50367;SDS011;36281;34.132;-118.018;2023-02-15T06:38:32;6.55;;;1.95;;
50367;SDS011;36281;34.132;-118.018;2023-02-15T06:41:01;3.65;;;1.80;;
50367;SDS011;36281;34.132;-118.018;2023-02-15T06:43:30;5.95;;;2.30;;
50367;SDS011;36281;34.132;-118.018;2023-02-15T06:45:59;4.20;;;2.00;;
50367;SDS011;36281;34.132;-118.018;2023-02-15T06:48:29;8.07;;;1.88;;
50367;SDS011;36281;34.132;-118.018;2023-02-15T06:50:58;6.88;;;2.55;;
50367;SDS011;36281;34.132;-118.018;2023-02-15T06:53:29;5.72;;;2.03;;
50367;SDS011;36281;34.132;-118.018;2023-02-15T06:56:01;4.80;;;2.08;;
50367;SDS011;36281;34.132;-118.018;2023-02-15T06:58:34;4.97;;;2.15;;
50367;SDS011;36281;34.132;-118.018;2023-02-15T07:01:03;5.13;;;1.98;;
50367;SDS011;36281;34.132;-118.018;2023-02-15T07:03:32;5.50;;;1.95;;
50367;SDS011;36281;34.132;-118.018;2023-02-15T07:06:02;3.20;;;2.00;;
50367;SDS011;36281;34.132;-118.018;2023-02-15T07:08:37;6.53;;;2.00;;
50367;SDS011;36281;34.132;-118.018;2023-02-15T07:11:07;6.00;;;2.20;;
50367;SDS011;36281;34.132;-118.018;2023-02-15T07:13:54;7.68;;;2.50;;
50367;SDS011;36281;34.132;-118.018;2023-02-15T07:16:23;4.63;;;2.10;;
50367;SDS011;36281;34.132;-118.018;2023-02-15T07:18:52;5.25;;;2.10;;
50367;SDS011;36281;34.132;-118.018;2023-02-15T07:21:21;4.22;;;1.80;;
50367;SDS011;36281;34.132;-118.018;2023-02-15T07:23:55;2.03;;;1.70;;
50367;SDS011;36281;34.132;-118.018;2023-02-15T07:26:25;3.97;;;1.45;;
50367;SDS011;36281;34.132;-118.018;2023-02-15T07:28:54;1.50;;;1.40;;
50367;SDS011;36281;34.132;-118.018;2023-02-15T07:31:23;2.25;;;1.40;;
50367;SDS011;36281;34.132;-118.018;2023-02-15T07:33:52;1.73;;;1.45;;
50367;SDS011;36281;34.132;-118.018;2023-02-15T07:36:21;1.85;;;1.30;;
50367;SDS011;36281;34.132;-118.018;2023-02-15T07:38:52;1.25;;;1.25;;
50367;SDS011;36281;34.132;-118.018;2023-02-15T07:41:21;2.08;;;1.50;;
50367;SDS011;36281;34.132;-118.018;2023-02-15T07:43:51;1.30;;;1.20;;
50367;SDS011;36281;34.132;-118.018;2023-02-15T07:46:20;2.40;;;1.60;;
50367;SDS011;36281;34.132;-118.018;2023-02-15T07:48:49;2.08;;;1.38;;
50367;SDS011;36281;34.132;-118.018;2023-02-15T07:51:18;1.67;;;1.20;;
50367;SDS011;36281;34.132;-118.018;2023-02-15T07:53:47;3.67;;;1.67;;
50367;SDS011;36281;34.132;-118.018;2023-02-15T07:56:18;2.00;;;1.13;;
50367;SDS011;36281;34.132;-118.018;2023-02-15T07:58:47;3.08;;;1.40;;
50367;SDS011;36281;34.132;-118.018;2023-02-15T08:01:19;3.00;;;1.50;;
50367;SDS011;36281;34.132;-118.018;2023-02-15T08:03:49;2.75;;;1.55;;
50367;SDS011;36281;34.132;-118.018;2023-02-15T08:06:19;2.47;;;1.35;;
50367;SDS011;36281;34.132;-118.018;2023-02-15T08:08:49;1.98;;;1.60;;
50367;SDS011;36281;34.132;-118.018;2023-02-15T08:11:21;1.77;;;1.13;;
50367;SDS011;36281;34.132;-118.018;2023-02-15T08:14:00;1.48;;;1.35;;
50367;SDS011;36281;34.132;-118.018;2023-02-15T08:16:32;1.35;;;1.25;;
50367;SDS011;36281;34.132;-118.018;2023-02-15T08:19:03;2.50;;;1.40;;
50367;SDS011;36281;34.132;-118.018;2023-02-15T08:21:34;1.00;;;1.00;;
50367;SDS011;36281;34.132;-118.018;2023-02-15T08:24:04;1.98;;;1.65;;
50367;SDS011;36281;34.132;-118.018;2023-02-15T08:26:36;1.65;;;1.55;;
50367;SDS011;36281;34.132;-118.018;2023-02-15T08:29:08;3.38;;;1.50;;
50367;SDS011;36281;34.132;-118.018;2023-02-15T08:31:37;2.50;;;1.35;;
50367;SDS011;36281;34.132;-118.018;2023-02-15T08:34:09;1.05;;;0.95;;
50367;SDS011;36281;34.132;-118.018;2023-02-15T08:36:39;1.90;;;1.40;;
50367;SDS011;36281;34.132;-118.018;2023-02-15T08:39:08;1.60;;;1.38;;
50367;SDS011;36281;34.132;-118.018;2023-02-15T08:41:41;3.58;;;2.17;;
50367;SDS011;36281;34.132;-118.018;2023-02-15T08:44:11;1.63;;;1.20;;
50367;SDS011;36281;34.132;-118.018;2023-02-15T08:46:41;2.00;;;1.23;;
50367;SDS011;36281;34.132;-118.018;2023-02-15T08:49:11;1.65;;;1.25;;
50367;SDS011;36281;34.132;-118.018;2023-02-15T08:51:41;1.45;;;1.10;;
50367;SDS011;36281;34.132;-118.018;2023-02-15T08:54:12;1.33;;;1.23;;
50367;SDS011;36281;34.132;-118.018;2023-02-15T08:56:45;2.17;;;1.20;;
50367;SDS011;36281;34.132;-118.018;2023-02-15T08:59:15;1.48;;;1.30;;
50367;SDS011;36281;34.132;-118.018;2023-02-15T09:01:46;1.30;;;1.20;;
50367;SDS011;36281;34.132;-118.018;2023-02-15T09:04:16;2.05;;;1.20;;
50367;SDS011;36281;34.132;-118.018;2023-02-15T09:06:46;1.52;;;1.40;;
50367;SDS011;36281;34.132;-118.018;2023-02-15T09:09:16;1.30;;;1.17;;
50367;SDS011;36281;34.132;-118.018;2023-02-15T09:11:48;2.10;;;1.30;;
50367;SDS011;36281;34.132;-118.018;2023-02-15T09:14:25;1.27;;;1.17;;
50367;SDS011;36281;34.132;-118.018;2023-02-15T09:16:54;1.73;;;1.27;;
50367;SDS011;36281;34.132;-118.018;2023-02-15T09:19:23;1.30;;;1.20;;
50367;SDS011;36281;34.132;-118.018;2023-02-15T09:21:53;1.55;;;1.35;;
50367;SDS011;36281;34.132;-118.018;2023-02-15T09:24:22;1.52;;;1.25;;
50367;SDS011;36281;34.132;-118.018;2023-02-15T09:26:53;2.58;;;1.40;;
50367;SDS011;36281;34.132;-118.018;2023-02-15T09:29:22;1.85;;;1.60;;
50367;SDS011;36281;34.132;-118.018;2023-02-15T09:31:51;2.40;;;1.42;;
50367;SDS011;36281;34.132;-118.018;2023-02-15T09:34:21;2.28;;;1.73;;
50367;SDS011;36281;34.132;-118.018;2023-02-15T09:36:50;1.88;;;1.35;;
50367;SDS011;36281;34.132;-118.018;2023-02-15T09:39:19;2.20;;;1.52;;
50367;SDS011;36281;34.132;-118.018;2023-02-15T09:42:06;1.35;;;1.13;;
50367;SDS011;36281;34.132;-118.018;2023-02-15T09:45:13;4.03;;;1.48;;
50367;SDS011;36281;34.132;-118.018;2023-02-15T09:48:22;1.45;;;1.35;;
50367;SDS011;36281;34.132;-118.018;2023-02-15T09:51:06;4.00;;;1.33;;
50367;SDS011;36281;34.132;-118.018;2023-02-15T09:53:56;1.42;;;1.33;;
50367;SDS011;36281;34.132;-118.018;2023-02-15T09:56:44;1.90;;;1.50;;
50367;SDS011;36281;34.132;-118.018;2023-02-15T09:59:19;2.80;;;1.50;;
50367;SDS011;36281;34.132;-118.018;2023-02-15T10:02:01;1.85;;;1.50;;
50367;SDS011;36281;34.132;-118.018;2023-02-15T10:04:47;1.40;;;1.30;;
50367;SDS011;36281;34.132;-118.018;2023-02-15T10:07:33;5.20;;;1.65;;
50367;SDS011;36281;34.132;-118.018;2023-02-15T10:10:13;1.40;;;1.30;;
50367;SDS011;36281;34.132;-118.018;2023-02-15T10:12:56;4.70;;;1.45;;
50367;SDS011;36281;34.132;-118.018;2023-02-15T10:15:37;2.47;;;1.40;;
50367;SDS011;36281;34.132;-118.018;2023-02-15T10:18:23;1.42;;;1.33;;
50367;SDS011;36281;34.132;-118.018;2023-02-15T10:21:10;2.28;;;1.20;;
50367;SDS011;36281;34.132;-118.018;2023-02-15T10:23:49;1.10;;;1.10;;
50367;SDS011;36281;34.132;-118.018;2023-02-15T10:26:41;2.15;;;1.27;;
50367;SDS011;36281;34.132;-118.018;2023-02-15T10:29:15;6.28;;;1.88;;
50367;SDS011;36281;34.132;-118.018;2023-02-15T10:31:59;1.35;;;1.08;;
50367;SDS011;36281;34.132;-118.018;2023-02-15T10:34:40;2.15;;;1.20;;
50367;SDS011;36281;34.132;-118.018;2023-02-15T10:40:23;1.80;;;1.50;;
50367;SDS011;36281;34.132;-118.018;2023-02-15T10:43:04;1.48;;;1.20;;
50367;SDS011;36281;34.132;-118.018;2023-02-15T10:45:47;1.23;;;1.00;;
50367;SDS011;36281;34.132;-118.018;2023-02-15T10:51:32;4.07;;;1.42;;
50367;SDS011;36281;34.132;-118.018;2023-02-15T10:54:15;1.27;;;1.20;;
50367;SDS011;36281;34.132;-118.018;2023-02-15T10:56:50;1.25;;;1.15;;
50367;SDS011;36281;34.132;-118.018;2023-02-15T10:59:37;2.65;;;1.30;;
50367;SDS011;36281;34.132;-118.018;2023-02-15T11:02:18;2.17;;;1.17;;
50367;SDS011;36281;34.132;-118.018;2023-02-15T11:04:55;2.70;;;1.27;;
50367;SDS011;36281;34.132;-118.018;2023-02-15T11:07:37;1.30;;;1.00;;
50367;SDS011;36281;34.132;-118.018;2023-02-15T11:10:13;2.13;;;1.27;;
50367;SDS011;36281;34.132;-118.018;2023-02-15T11:12:54;3.50;;;1.15;;
50367;SDS011;36281;34.132;-118.018;2023-02-15T11:15:25;3.33;;;1.23;;
50367;SDS011;36281;34.132;-118.018;2023-02-15T11:18:01;2.00;;;1.30;;
50367;SDS011;36281;34.132;-118.018;2023-02-15T11:20:38;1.27;;;1.10;;
50367;SDS011;36281;34.132;-118.018;2023-02-15T11:23:13;2.35;;;1.20;;
50367;SDS011;36281;34.132;-118.018;2023-02-15T11:25:46;1.17;;;1.05;;
50367;SDS011;36281;34.132;-118.018;2023-02-15T11:28:23;2.05;;;1.60;;
50367;SDS011;36281;34.132;-118.018;2023-02-15T11:30:58;1.20;;;1.10;;
50367;SDS011;36281;34.132;-118.018;2023-02-15T11:33:31;1.05;;;0.90;;
50367;SDS011;36281;34.132;-118.018;2023-02-15T11:36:08;1.60;;;1.15;;
50367;SDS011;36281;34.132;-118.018;2023-02-15T11:38:41;1.05;;;0.95;;
50367;SDS011;36281;34.132;-118.018;2023-02-15T11:41:11;2.15;;;1.20;;
50367;SDS011;36281;34.132;-118.018;2023-02-15T11:43:48;2.05;;;1.35;;
50367;SDS011;36281;34.132;-118.018;2023-02-15T11:46:21;3.38;;;1.20;;
50367;SDS011;36281;34.132;-118.018;2023-02-15T11:48:51;3.75;;;1.42;;
50367;SDS011;36281;34.132;-118.018;2023-02-15T11:51:22;2.90;;;1.17;;
50367;SDS011;36281;34.132;-118.018;2023-02-15T11:53:51;1.58;;;1.13;;
50367;SDS011;36281;34.132;-118.018;2023-02-15T11:56:21;2.53;;;1.25;;
50367;SDS011;36281;34.132;-118.018;2023-02-15T11:58:52;2.97;;;1.17;;
50367;SDS011;36281;34.132;-118.018;2023-02-15T12:01:27;1.55;;;1.30;;
50367;SDS011;36281;34.132;-118.018;2023-02-15T12:04:01;2.30;;;1.00;;
50367;SDS011;36281;34.132;-118.018;2023-02-15T12:06:37;2.50;;;1.13;;
50367;SDS011;36281;34.132;-118.018;2023-02-15T12:09:13;3.20;;;1.50;;
50367;SDS011;36281;34.132;-118.018;2023-02-15T12:11:49;2.40;;;1.42;;
50367;SDS011;36281;34.132;-118.018;2023-02-15T12:14:18;2.40;;;1.17;;
50367;SDS011;36281;34.132;-118.018;2023-02-15T12:16:48;1.02;;;0.98;;
50367;SDS011;36281;34.132;-118.018;2023-02-15T12:19:26;2.42;;;1.13;;
50367;SDS011;36281;34.132;-118.018;2023-02-15T12:22:00;2.30;;;1.17;;
50367;SDS011;36281;34.132;-118.018;2023-02-15T12:24:32;2.58;;;1.13;;
50367;SDS011;36281;34.132;-118.018;2023-02-15T12:27:05;2.72;;;1.33;;
50367;SDS011;36281;34.132;-118.018;2023-02-15T12:29:43;1.70;;;1.05;;
50367;SDS011;36281;34.132;-118.018;2023-02-15T12:32:17;1.92;;;1.25;;
50367;SDS011;36281;34.132;-118.018;2023-02-15T12:34:48;3.50;;;1.20;;
50367;SDS011;36281;34.132;-118.018;2023-02-15T12:37:21;3.25;;;1.30;;
50367;SDS011;36281;34.132;-118.018;2023-02-15T12:39:55;1.70;;;1.17;;
50367;SDS011;36281;34.132;-118.018;2023-02-15T12:42:25;0.98;;;0.98;;
50367;SDS011;36281;34.132;-118.018;2023-02-15T12:44:58;3.95;;;1.30;;
50367;SDS011;36281;34.132;-118.018;2023-02-15T12:47:28;1.10;;;1.00;;
50367;SDS011;36281;34.132;-118.018;2023-02-15T12:50:10;2.00;;;1.30;;
50367;SDS011;36281;34.132;-118.018;2023-02-15T12:52:47;1.45;;;1.10;;
50367;SDS011;36281;34.132;-118.018;2023-02-15T12:55:19;3.78;;;1.10;;
50367;SDS011;36281;34.132;-118.018;2023-02-15T12:58:04;1.15;;;1.00;;
50367;SDS011;36281;34.132;-118.018;2023-02-15T13:00:44;1.33;;;1.17;;
50367;SDS011;36281;34.132;-118.018;2023-02-15T13:03:16;1.52;;;1.10;;
50367;SDS011;36281;34.132;-118.018;2023-02-15T13:05:48;1.50;;;1.27;;
50367;SDS011;36281;34.132;-118.018;2023-02-15T13:08:27;2.35;;;1.42;;
50367;SDS011;36281;34.132;-118.018;2023-02-15T13:10:59;1.88;;;1.27;;
50367;SDS011;36281;34.132;-118.018;2023-02-15T13:13:31;1.88;;;1.23;;
50367;SDS011;36281;34.132;-118.018;2023-02-15T13:16:02;1.45;;;0.93;;
50367;SDS011;36281;34.132;-118.018;2023-02-15T13:18:37;2.65;;;1.33;;
50367;SDS011;36281;34.132;-118.018;2023-02-15T13:21:10;1.23;;;1.10;;
50367;SDS011;36281;34.132;-118.018;2023-02-15T13:23:44;3.10;;;1.02;;
50367;SDS011;36281;34.132;-118.018;2023-02-15T13:26:16;0.90;;;0.90;;
50367;SDS011;36281;34.132;-118.018;2023-02-15T13:28:48;1.48;;;1.08;;
50367;SDS011;36281;34.132;-118.018;2023-02-15T13:31:23;2.22;;;1.40;;
50367;SDS011;36281;34.132;-118.018;2023-02-15T13:33:56;1.30;;;1.20;;
50367;SDS011;36281;34.132;-118.018;2023-02-15T13:36:30;2.85;;;1.30;;
50367;SDS011;36281;34.132;-118.018;2023-02-15T13:39:13;1.65;;;1.13;;
50367;SDS011;36281;34.132;-118.018;2023-02-15T13:41:55;1.88;;;1.17;;
50367;SDS011;36281;34.132;-118.018;2023-02-15T13:44:36;1.42;;;1.33;;
50367;SDS011;36281;34.132;-118.018;2023-02-15T13:47:23;2.22;;;1.15;;
50367;SDS011;36281;34.132;-118.018;2023-02-15T13:50:07;1.80;;;1.40;;
50367;SDS011;36281;34.132;-118.018;2023-02-15T13:52:47;5.93;;;1.30;;
50367;SDS011;36281;34.132;-118.018;2023-02-15T13:55:32;2.95;;;2.05;;
50367;SDS011;36281;34.132;-118.018;2023-02-15T13:58:15;2.58;;;1.90;;
50367;SDS011;36281;34.132;-118.018;2023-02-15T14:01:17;2.55;;;2.10;;
50367;SDS011;36281;34.132;-118.018;2023-02-15T14:04:10;3.70;;;2.00;;
50367;SDS011;36281;34.132;-118.018;2023-02-15T14:09:55;3.65;;;1.77;;
50367;SDS011;36281;34.132;-118.018;2023-02-15T14:12:40;2.70;;;1.70;;
50367;SDS011;36281;34.132;-118.018;2023-02-15T14:15:24;1.80;;;1.42;;
50367;SDS011;36281;34.132;-118.018;2023-02-15T14:18:04;2.10;;;1.98;;
50367;SDS011;36281;34.132;-118.018;2023-02-15T14:20:51;3.50;;;1.30;;
50367;SDS011;36281;34.132;-118.018;2023-02-15T14:23:34;3.08;;;1.70;;
50367;SDS011;36281;34.132;-118.018;2023-02-15T14:28:54;4.90;;;1.40;;
50367;SDS011;36281;34.132;-118.018;2023-02-15T14:31:32;2.22;;;1.67;;
50367;SDS011;36281;34.132;-118.018;2023-02-15T14:34:08;5.10;;;1.90;;
50367;SDS011;36281;34.132;-118.018;2023-02-15T14:36:47;4.10;;;1.80;;
50367;SDS011;36281;34.132;-118.018;2023-02-15T14:39:22;2.15;;;1.63;;
50367;SDS011;36281;34.132;-118.018;2023-02-15T14:42:16;3.45;;;1.90;;
50367;SDS011;36281;34.132;-118.018;2023-02-15T14:44:55;2.47;;;1.70;;
50367;SDS011;36281;34.132;-118.018;2023-02-15T14:47:31;4.07;;;1.65;;
50367;SDS011;36281;34.132;-118.018;2023-02-15T14:56:25;2.78;;;1.73;;
50367;SDS011;36281;34.132;-118.018;2023-02-15T14:58:56;3.88;;;1.70;;
50367;SDS011;36281;34.132;-118.018;2023-02-15T15:01:41;2.67;;;1.50;;
50367;SDS011;36281;34.132;-118.018;2023-02-15T15:04:22;2.25;;;1.73;;
50367;SDS011;36281;34.132;-118.018;2023-02-15T15:07:00;1.95;;;1.85;;
50367;SDS011;36281;34.132;-118.018;2023-02-15T15:09:36;3.03;;;2.03;;
50367;SDS011;36281;34.132;-118.018;2023-02-15T15:12:14;1.73;;;1.50;;
50367;SDS011;36281;34.132;-118.018;2023-02-15T15:14:58;3.03;;;1.90;;
50367;SDS011;36281;34.132;-118.018;2023-02-15T15:20:39;1.98;;;1.50;;
50367;SDS011;36281;34.132;-118.018;2023-02-15T15:26:22;3.45;;;1.58;;